Time;durP1;ratioP1;P1;durP2;ratioP2;P2;SDS_P1;SDS_P2;PMS_P1;PMS_P2;Temp;Humidity;BMP_temperature;BMP_pressure;BME280_temperature;BME280_humidity;BME280_pressure;Samples;Min_cycle;Max_cycle;Signal;HPM_P1;HPM_P2
2022/06/21 02:04:45;;;;;;;7.78;4.15;;;;;;;;;;5019674;28;20055;-68
2022/06/21 02:07:13;;;;;;;9.27;4.35;;;;;;;;;;5035204;28;20038;-68
2022/06/21 02:09:43;;;;;;;12.23;4.70;;;;;;;;;;5035055;28;20112;-68
2022/06/21 02:12:11;;;;;;;9.65;4.13;;;;;;;;;;5035326;28;20033;-68
2022/06/21 02:14:57;;;;;;;5.78;4.32;;;;;;;;;;5035263;28;20488;-68
2022/06/21 02:17:25;;;;;;;5.97;3.97;;;;;;;;;;5034927;28;20068;-68
2022/06/21 02:20:10;;;;;;;7.82;4.70;;;;;;;;;;5034962;28;20121;-67
2022/06/21 02:22:36;;;;;;;6.95;3.92;;;;;;;;;;5035331;28;20495;-69
2022/06/21 02:25:03;;;;;;;10.93;4.88;;;;;;;;;;5034907;28;20068;-69
2022/06/21 02:27:34;;;;;;;7.78;3.88;;;;;;;;;;5034981;28;20491;-67
2022/06/21 02:30:02;;;;;;;11.75;3.80;;;;;;;;;;5035083;28;20442;-68
2022/06/21 02:32:31;;;;;;;9.43;4.20;;;;;;;;;;5034807;28;20039;-68
2022/06/21 02:35:00;;;;;;;8.50;4.00;;;;;;;;;;5034660;28;20037;-68
2022/06/21 02:37:27;;;;;;;12.88;4.50;;;;;;;;;;5034864;28;20033;-68
2022/06/21 02:39:54;;;;;;;7.85;4.10;;;;;;;;;;5034285;28;20030;-69
2022/06/21 02:42:22;;;;;;;5.50;4.05;;;;;;;;;;5034773;28;20033;-69
2022/06/21 02:44:53;;;;;;;9.18;4.65;;;;;;;;;;5034710;28;20049;-68
2022/06/21 02:47:25;;;;;;;8.95;3.90;;;;;;;;;;5034560;28;20040;-68
2022/06/21 02:49:51;;;;;;;;;;;;;;;;;;5035285;28;20065;-68
2022/06/21 02:52:40;;;;;;;10.63;4.47;;;;;;;;;;5034497;28;19955;-68
2022/06/21 02:55:25;;;;;;;8.18;3.90;;;;;;;;;;5033803;28;20045;-69
2022/06/21 02:58:04;;;;;;;8.95;4.22;;;;;;;;;;5034478;28;20103;-69
2022/06/21 03:00:30;;;;;;;9.40;4.40;;;;;;;;;;5034561;28;20395;-68
2022/06/21 03:02:58;;;;;;;13.93;4.70;;;;;;;;;;5034484;28;20052;-69
2022/06/21 03:05:25;;;;;;;6.55;4.57;;;;;;;;;;5034383;28;20095;-68
2022/06/21 03:07:56;;;;;;;5.47;3.92;;;;;;;;;;5034198;28;20037;-68
2022/06/21 03:10:25;;;;;;;7.38;4.75;;;;;;;;;;5034066;28;20034;-68
2022/06/21 03:12:55;;;;;;;16.33;4.60;;;;;;;;;;5034390;28;20487;-68
2022/06/21 03:15:21;;;;;;;9.23;4.20;;;;;;;;;;5034220;28;20034;-69
2022/06/21 03:17:54;;;;;;;8.00;4.40;;;;;;;;;;5033892;28;20037;-68
2022/06/21 03:20:20;;;;;;;20.40;4.72;;;;;;;;;;5034155;28;20037;-68
2022/06/21 03:22:47;;;;;;;10.20;4.47;;;;;;;;;;5034200;28;20033;-67
2022/06/21 03:25:19;;;;;;;14.93;4.45;;;;;;;;;;5034032;28;20041;-67
2022/06/21 03:27:50;;;;;;;12.30;4.10;;;;;;;;;;5033971;28;20033;-69
2022/06/21 03:30:18;;;;;;;11.40;4.53;;;;;;;;;;5033560;28;20034;-68
2022/06/21 03:32:44;;;;;;;15.68;4.50;;;;;;;;;;5033740;28;20030;-68
2022/06/21 03:35:10;;;;;;;12.15;4.30;;;;;;;;;;5033844;28;20025;-68
2022/06/21 03:37:38;;;;;;;19.42;5.75;;;;;;;;;;5033730;28;20084;-68
2022/06/21 03:42:51;;;;;;;10.13;4.70;;;;;;;;;;5033937;28;20036;-68
2022/06/21 03:45:37;;;;;;;8.50;4.57;;;;;;;;;;5033555;28;20072;-68
2022/06/21 03:48:06;;;;;;;10.80;4.57;;;;;;;;;;5033442;28;20116;-67
2022/06/21 03:50:34;;;;;;;8.02;4.50;;;;;;;;;;5032723;28;20037;-69
2022/06/21 03:53:00;;;;;;;8.27;5.00;;;;;;;;;;5033502;28;20038;-68
2022/06/21 03:55:26;;;;;;;10.52;4.57;;;;;;;;;;5033354;28;20091;-67
2022/06/21 03:57:56;;;;;;;12.18;5.20;;;;;;;;;;5033121;28;20092;-67
2022/06/21 04:00:23;;;;;;;9.90;4.72;;;;;;;;;;5032057;28;20446;-68
2022/06/21 04:03:08;;;;;;;6.53;4.72;;;;;;;;;;5033319;28;20061;-68
2022/06/21 04:05:48;;;;;;;5.20;4.65;;;;;;;;;;5033050;28;20057;-68
2022/06/21 04:08:23;;;;;;;7.13;4.63;;;;;;;;;;5033083;28;20488;-68
2022/06/21 04:11:11;;;;;;;6.22;4.28;;;;;;;;;;5033033;28;20049;-68
2022/06/21 04:13:55;;;;;;;8.95;4.63;;;;;;;;;;5033297;28;20483;-68
2022/06/21 04:16:24;;;;;;;9.15;4.75;;;;;;;;;;5033124;28;20033;-68
2022/06/21 04:18:50;;;;;;;8.93;4.15;;;;;;;;;;5033222;28;20033;-68
2022/06/21 04:21:22;;;;;;;11.55;4.60;;;;;;;;;;5032976;28;20484;-68
2022/06/21 04:23:48;;;;;;;;;;;;;;;;;;5033437;28;20044;-67
2022/06/21 04:26:18;;;;;;;13.90;4.72;;;;;;;;;;5032910;28;20001;-69
2022/06/21 04:29:19;;;;;;;11.65;4.55;;;;;;;;;;5033015;28;20476;-67
2022/06/21 04:31:55;;;;;;;7.53;4.53;;;;;;;;;;5030522;28;20381;-68
2022/06/21 04:34:25;;;;;;;9.50;4.50;;;;;;;;;;5032608;28;20036;-68
2022/06/21 04:36:54;;;;;;;9.57;5.85;;;;;;;;;;5032890;28;20060;-68
2022/06/21 04:39:32;;;;;;;14.05;4.95;;;;;;;;;;5032914;28;20034;-68
2022/06/21 04:42:01;;;;;;;9.73;5.40;;;;;;;;;;5031455;28;20048;-68
2022/06/21 04:44:31;;;;;;;11.77;4.90;;;;;;;;;;5033032;28;20042;-68
2022/06/21 04:47:01;;;;;;;11.77;4.90;;;;;;;;;;5032814;28;20539;-68
2022/06/21 04:49:42;;;;;;;6.38;4.80;;;;;;;;;;5032867;28;20100;-67
2022/06/21 04:52:21;;;;;;;11.55;5.28;;;;;;;;;;5032816;28;20033;-68
2022/06/21 04:54:47;;;;;;;12.13;4.60;;;;;;;;;;5032581;28;20472;-68
2022/06/21 04:57:24;;;;;;;12.15;4.97;;;;;;;;;;5032527;28;20042;-68
2022/06/21 04:59:50;;;;;;;11.15;4.75;;;;;;;;;;5032279;28;20029;-68
2022/06/21 05:02:19;;;;;;;6.18;4.40;;;;;;;;;;5033757;28;20036;-68
2022/06/21 05:04:46;;;;;;;7.38;4.05;;;;;;;;;;5036020;28;20502;-68
2022/06/21 05:07:17;;;;;;;11.77;5.03;;;;;;;;;;5036223;28;20044;-68
2022/06/21 05:09:43;;;;;;;7.85;4.63;;;;;;;;;;5036376;28;20041;-67
2022/06/21 05:12:16;;;;;;;7.43;4.47;;;;;;;;;;5036406;28;20030;-68
2022/06/21 05:14:45;;;;;;;13.23;4.95;;;;;;;;;;5036235;28;20033;-68
2022/06/21 05:17:14;;;;;;;11.25;4.85;;;;;;;;;;5036096;28;20490;-68
2022/06/21 05:19:42;;;;;;;8.25;4.85;;;;;;;;;;5035902;28;20037;-68
2022/06/21 05:22:17;;;;;;;8.90;5.20;;;;;;;;;;5036613;28;20034;-68
2022/06/21 05:24:44;;;;;;;7.03;4.10;;;;;;;;;;5036273;28;20045;-68
2022/06/21 05:27:19;;;;;;;7.25;4.10;;;;;;;;;;5036011;28;20509;-68
2022/06/21 05:29:48;;;;;;;7.72;4.00;;;;;;;;;;5036031;28;20033;-67
2022/06/21 05:32:17;;;;;;;5.72;3.58;;;;;;;;;;5036035;28;20448;-68
2022/06/21 05:34:47;;;;;;;9.05;4.00;;;;;;;;;;5035716;28;20037;-68
2022/06/21 05:37:32;;;;;;;6.88;3.47;;;;;;;;;;5035932;28;20036;-70
2022/06/21 05:40:00;;;;;;;9.43;3.88;;;;;;;;;;5035842;28;20558;-70
2022/06/21 05:42:28;;;;;;;7.25;3.63;;;;;;;;;;5035667;28;20129;-71
2022/06/21 05:44:59;;;;;;;9.65;3.90;;;;;;;;;;5035597;28;20046;-70
2022/06/21 05:47:31;;;;;;;7.85;4.05;;;;;;;;;;5035603;28;20033;-70
2022/06/21 05:49:58;;;;;;;10.02;4.20;;;;;;;;;;5035888;28;20112;-71
2022/06/21 05:52:33;;;;;;;8.35;3.70;;;;;;;;;;5035460;28;20072;-71
2022/06/21 05:55:02;;;;;;;6.72;3.85;;;;;;;;;;5035739;28;20034;-70
2022/06/21 05:57:34;;;;;;;10.75;4.05;;;;;;;;;;5035457;28;20057;-70
2022/06/21 06:00:03;;;;;;;8.15;3.47;;;;;;;;;;5035100;28;20029;-70
2022/06/21 06:02:33;;;;;;;17.48;4.88;;;;;;;;;;5035417;28;20037;-70
2022/06/21 06:05:05;;;;;;;20.33;5.18;;;;;;;;;;5035308;28;20085;-71
2022/06/21 06:07:33;;;;;;;17.95;5.45;;;;;;;;;;5035256;28;20582;-73
2022/06/21 06:10:01;;;;;;;20.95;6.00;;;;;;;;;;5035281;28;20034;-72
2022/06/21 06:12:29;;;;;;;12.10;4.32;;;;;;;;;;5034864;28;20042;-73
2022/06/21 06:15:07;;;;;;;12.38;4.40;;;;;;;;;;5034511;28;20069;-72
2022/06/21 06:17:51;;;;;;;13.95;4.15;;;;;;;;;;5035250;28;20057;-72
2022/06/21 06:20:20;;;;;;;20.98;4.05;;;;;;;;;;5034184;28;20506;-72
2022/06/21 06:22:49;;;;;;;7.18;4.00;;;;;;;;;;5034635;28;20026;-72
2022/06/21 06:25:17;;;;;;;10.95;3.47;;;;;;;;;;5034679;28;20507;-72
2022/06/21 06:27:50;;;;;;;10.63;3.10;;;;;;;;;;5034558;28;20034;-72
2022/06/21 06:30:22;;;;;;;10.30;3.25;;;;;;;;;;5034849;28;20083;-72
2022/06/21 06:33:14;;;;;;;12.35;3.08;;;;;;;;;;5035285;28;20083;-72
2022/06/21 06:35:41;;;;;;;9.30;3.13;;;;;;;;;;5034293;28;20040;-72
2022/06/21 06:38:09;;;;;;;6.88;3.35;;;;;;;;;;5035152;28;20041;-73
2022/06/21 06:40:37;;;;;;;8.70;3.10;;;;;;;;;;5033790;28;20175;-72
2022/06/21 06:43:05;;;;;;;9.10;3.20;;;;;;;;;;5034793;28;20395;-73
2022/06/21 06:45:33;;;;;;;12.07;3.38;;;;;;;;;;5034990;28;20373;-72
2022/06/21 06:48:03;;;;;;;11.52;3.15;;;;;;;;;;5034580;28;20038;-72
2022/06/21 06:50:32;;;;;;;9.30;3.58;;;;;;;;;;5034322;28;20065;-71
2022/06/21 06:53:09;;;;;;;6.80;2.88;;;;;;;;;;5034447;28;20506;-73
2022/06/21 06:55:35;;;;;;;5.60;2.85;;;;;;;;;;5034476;28;20040;-73
2022/06/21 06:58:01;;;;;;;7.05;3.10;;;;;;;;;;5034639;28;20110;-71
2022/06/21 07:00:36;;;;;;;14.18;3.22;;;;;;;;;;5034332;28;20399;-71
2022/06/21 07:03:29;;;;;;;7.38;2.72;;;;;;;;;;5034534;28;20072;-71
2022/06/21 07:05:58;;;;;;;7.72;2.90;;;;;;;;;;5033794;28;20400;-72
2022/06/21 07:08:27;;;;;;;5.88;2.60;;;;;;;;;;5034471;28;20036;-72
2022/06/21 07:10:54;;;;;;;6.72;2.80;;;;;;;;;;5032916;28;20033;-72
2022/06/21 07:13:20;;;;;;;12.23;3.50;;;;;;;;;;5034208;28;20099;-72
2022/06/21 07:15:47;;;;;;;4.97;2.30;;;;;;;;;;5034100;28;20116;-72
2022/06/21 07:18:21;;;;;;;8.98;2.55;;;;;;;;;;5034108;28;20033;-71
2022/06/21 07:20:47;;;;;;;8.70;2.55;;;;;;;;;;5033981;28;20044;-71
2022/06/21 07:23:17;;;;;;;6.78;2.30;;;;;;;;;;5033922;28;20045;-73
2022/06/21 07:25:50;;;;;;;11.70;2.67;;;;;;;;;;5034008;28;20038;-72
2022/06/21 07:28:21;;;;;;;9.80;2.45;;;;;;;;;;5033770;28;20033;-71
2022/06/21 07:30:48;;;;;;;14.38;2.80;;;;;;;;;;5034024;28;20037;-71
2022/06/21 07:33:20;;;;;;;10.55;2.80;;;;;;;;;;5033919;28;20068;-72
2022/06/21 07:35:49;;;;;;;10.90;2.70;;;;;;;;;;5033766;28;20061;-72
2022/06/21 07:38:19;;;;;;;7.32;2.78;;;;;;;;;;5033543;28;20065;-73
2022/06/21 07:40:54;;;;;;;13.45;3.20;;;;;;;;;;5033799;28;20095;-71
2022/06/21 07:43:23;;;;;;;4.53;2.60;;;;;;;;;;5033564;28;20495;-72
2022/06/21 07:45:53;;;;;;;8.73;2.78;;;;;;;;;;5033841;28;20052;-72
2022/06/21 07:48:25;;;;;;;6.72;2.30;;;;;;;;;;5033314;28;20029;-72
2022/06/21 07:50:53;;;;;;;9.55;2.88;;;;;;;;;;5032513;28;20510;-72
2022/06/21 07:53:29;;;;;;;8.98;2.72;;;;;;;;;;5033666;28;20037;-72
2022/06/21 07:56:01;;;;;;;9.38;2.80;;;;;;;;;;5033547;28;20032;-71
2022/06/21 07:58:30;;;;;;;11.65;2.55;;;;;;;;;;5033240;28;20042;-72
2022/06/21 08:06:41;;;;;;;8.25;2.83;;;;;;;;;;5033477;28;20035;-72
2022/06/21 08:09:07;;;;;;;6.32;2.80;;;;;;;;;;5032993;28;20438;-72
2022/06/21 08:11:37;;;;;;;10.85;3.08;;;;;;;;;;5033419;28;20392;-72
2022/06/21 08:14:03;;;;;;;11.20;2.30;;;;;;;;;;5033286;28;20057;-71
2022/06/21 08:16:34;;;;;;;6.75;2.83;;;;;;;;;;5033168;28;20472;-72
2022/06/21 08:19:12;;;;;;;7.67;2.73;;;;;;;;;;5033054;28;20407;-71
2022/06/21 08:21:41;;;;;;;5.28;2.40;;;;;;;;;;5033070;28;20121;-71
2022/06/21 08:24:22;;;;;;;13.73;2.60;;;;;;;;;;5033238;28;20545;-72
2022/06/21 08:27:03;;;;;;;9.60;2.60;;;;;;;;;;5033363;28;20033;-71
2022/06/21 08:29:48;;;;;;;10.38;2.53;;;;;;;;;;5033293;28;20090;-71
2022/06/21 08:32:34;;;;;;;9.25;2.70;;;;;;;;;;5032893;28;20480;-71
2022/06/21 08:35:04;;;;;;;9.27;2.72;;;;;;;;;;5032713;28;20391;-71
2022/06/21 08:37:39;;;;;;;5.13;2.42;;;;;;;;;;5032489;28;20088;-71
2022/06/21 08:40:07;;;;;;;11.55;2.60;;;;;;;;;;5032967;28;20144;-71
2022/06/21 08:42:49;;;;;;;6.38;2.50;;;;;;;;;;5032618;28;20034;-71
2022/06/21 08:48:24;;;;;;;6.30;2.67;;;;;;;;;;5033234;28;20095;-71
2022/06/21 08:50:53;;;;;;;5.10;2.17;;;;;;;;;;5032909;28;20100;-71
2022/06/21 08:53:34;;;;;;;9.63;2.40;;;;;;;;;;5032986;28;20038;-71
2022/06/21 08:56:00;;;;;;;4.95;2.70;;;;;;;;;;5032841;28;20038;-71
2022/06/21 08:58:50;;;;;;;4.68;3.10;;;;;;;;;;5032722;28;20041;-71
2022/06/21 09:01:39;;;;;;;7.57;2.65;;;;;;;;;;5032582;28;20061;-73
2022/06/21 09:04:05;;;;;;;9.60;2.63;;;;;;;;;;5032601;28;20054;-70
2022/06/21 09:06:51;;;;;;;10.48;3.10;;;;;;;;;;5031627;28;20036;-71
2022/06/21 09:09:25;;;;;;;10.30;3.03;;;;;;;;;;5032646;28;20113;-72
2022/06/21 09:12:02;;;;;;;11.40;2.78;;;;;;;;;;5032665;28;20052;-71
2022/06/21 09:14:46;;;;;;;8.45;2.45;;;;;;;;;;5032491;28;20033;-71
2022/06/21 09:17:12;;;;;;;14.75;3.63;;;;;;;;;;5032870;28;20033;-71
2022/06/21 09:19:38;;;;;;;13.10;2.75;;;;;;;;;;5032654;28;20030;-72
2022/06/21 09:22:23;;;;;;;8.10;3.22;;;;;;;;;;5032556;28;20119;-71
2022/06/21 09:24:58;;;;;;;6.85;2.75;;;;;;;;;;5032301;28;20049;-72
2022/06/21 09:27:32;;;;;;;6.25;2.53;;;;;;;;;;5030916;28;20538;-70
2022/06/21 09:30:07;;;;;;;7.75;2.60;;;;;;;;;;5030907;28;20034;-71
2022/06/21 09:32:49;;;;;;;11.68;2.80;;;;;;;;;;5031866;28;20405;-70
2022/06/21 09:35:18;;;;;;;10.80;2.58;;;;;;;;;;5032265;28;20365;-70
2022/06/21 09:38:09;;;;;;;9.07;2.95;;;;;;;;;;5042556;28;20033;-70
2022/06/21 09:40:55;;;;;;;11.73;3.45;;;;;;;;;;5051671;28;20495;-71
2022/06/21 09:43:39;;;;;;;12.40;3.00;;;;;;;;;;5050453;28;20033;-71
2022/06/21 09:46:12;;;;;;;17.98;3.42;;;;;;;;;;5051690;28;20041;-71
2022/06/21 09:48:41;;;;;;;12.75;3.22;;;;;;;;;;5052150;28;20040;-71
2022/06/21 09:51:13;;;;;;;5.28;2.67;;;;;;;;;;5042755;28;20033;-72
2022/06/21 09:53:46;;;;;;;14.05;3.13;;;;;;;;;;5035534;28;20030;-71
2022/06/21 09:56:19;;;;;;;11.45;2.85;;;;;;;;;;5038933;28;20111;-71
2022/06/21 09:59:04;;;;;;;9.68;3.13;;;;;;;;;;5055269;28;20104;-72
2022/06/21 10:01:42;;;;;;;12.45;3.40;;;;;;;;;;5055389;28;20025;-70
2022/06/21 10:04:28;;;;;;;12.35;3.50;;;;;;;;;;5054848;28;20057;-70
2022/06/21 10:07:00;;;;;;;14.38;2.85;;;;;;;;;;5055304;28;20430;-70
2022/06/21 10:09:26;;;;;;;10.73;3.55;;;;;;;;;;5054994;28;20071;-69
2022/06/21 10:12:01;;;;;;;8.52;3.00;;;;;;;;;;5054794;28;20068;-70
2022/06/21 10:14:33;;;;;;;7.32;2.92;;;;;;;;;;5054917;28;20065;-71
2022/06/21 10:16:59;;;;;;;9.63;2.95;;;;;;;;;;5053441;28;20065;-70
2022/06/21 10:19:44;;;;;;;10.30;2.90;;;;;;;;;;5034721;28;20032;-71
2022/06/21 10:22:15;;;;;;;8.52;2.95;;;;;;;;;;5034875;28;20033;-70
2022/06/21 10:24:48;;;;;;;12.55;2.95;;;;;;;;;;5034473;28;20171;-71
2022/06/21 10:27:33;;;;;;;9.65;3.42;;;;;;;;;;5034633;28;20049;-71
2022/06/21 10:30:17;;;;;;;14.43;3.55;;;;;;;;;;5034824;28;20033;-71
2022/06/21 10:32:46;;;;;;;6.80;2.72;;;;;;;;;;5034934;28;20041;-72
2022/06/21 10:35:34;;;;;;;9.60;2.45;;;;;;;;;;5035131;28;20112;-72
2022/06/21 10:38:29;;;;;;;11.27;2.83;;;;;;;;;;5034961;28;20076;-71
2022/06/21 10:41:14;;;;;;;10.32;3.05;;;;;;;;;;5032599;28;20045;-71
2022/06/21 10:43:46;;;;;;;6.22;2.72;;;;;;;;;;5034919;28;20042;-71
2022/06/21 10:46:20;;;;;;;5.20;2.72;;;;;;;;;;5034844;28;20033;-72
2022/06/21 10:49:05;;;;;;;6.72;3.00;;;;;;;;;;5034580;28;20136;-71
2022/06/21 10:51:35;;;;;;;10.93;3.13;;;;;;;;;;5034721;28;20034;-72
2022/06/21 10:54:10;;;;;;;9.10;2.80;;;;;;;;;;5034632;28;20037;-71
2022/06/21 11:01:17;;;;;;;12.48;3.17;;;;;;;;;;5034175;28;20180;-71
2022/06/21 11:02:50;;;;;;;5.47;2.88;;;;;;;;;;5034603;28;20506;-71
2022/06/21 11:05:17;;;;;;;12.60;3.20;;;;;;;;;;5032204;28;20080;-72
2022/06/21 11:07:51;;;;;;;7.68;3.42;;;;;;;;;;5034318;28;20518;-70
2022/06/21 11:10:28;;;;;;;12.20;2.95;;;;;;;;;;5034272;28;20076;-70
2022/06/21 11:12:56;;;;;;;8.57;3.35;;;;;;;;;;5034200;28;20025;-72
2022/06/21 11:15:29;;;;;;;5.85;2.83;;;;;;;;;;5034354;28;20060;-71
2022/06/21 11:17:58;;;;;;;10.90;3.30;;;;;;;;;;5034045;28;20032;-70
2022/06/21 11:20:31;;;;;;;13.02;3.08;;;;;;;;;;5033838;28;20087;-73
2022/06/21 11:23:05;;;;;;;9.55;3.10;;;;;;;;;;5034053;28;20553;-73
2022/06/21 11:25:46;;;;;;;11.88;3.33;;;;;;;;;;5033982;28;20045;-73
2022/06/21 11:28:31;;;;;;;14.63;3.53;;;;;;;;;;5031113;28;20041;-73
2022/06/21 11:31:16;;;;;;;15.82;3.50;;;;;;;;;;5030921;28;20112;-73
2022/06/21 11:33:51;;;;;;;9.15;3.13;;;;;;;;;;5031947;28;20084;-73
2022/06/21 11:36:17;;;;;;;7.97;2.78;;;;;;;;;;5032097;28;20121;-72
2022/06/21 11:39:02;;;;;;;15.18;3.35;;;;;;;;;;5033807;28;20033;-72
2022/06/21 11:44:28;;;;;;;17.50;3.15;;;;;;;;;;5033550;28;20526;-73
2022/06/21 11:46:58;;;;;;;13.55;3.50;;;;;;;;;;5033586;28;20087;-71
2022/06/21 11:49:48;;;;;;;9.00;3.08;;;;;;;;;;5033382;28;20061;-72
2022/06/21 11:52:25;;;;;;;16.17;3.30;;;;;;;;;;5033450;28;20072;-73
2022/06/21 11:54:55;;;;;;;33.10;4.68;;;;;;;;;;5033590;28;20029;-71
2022/06/21 11:57:24;;;;;;;17.27;4.15;;;;;;;;;;5033156;28;20491;-72
2022/06/21 12:00:05;;;;;;;20.27;4.90;;;;;;;;;;5033328;28;20124;-73
2022/06/21 12:02:44;;;;;;;13.75;3.70;;;;;;;;;;5033145;28;20037;-70
2022/06/21 12:05:20;;;;;;;11.25;3.42;;;;;;;;;;5032535;28;20041;-71
2022/06/21 12:08:08;;;;;;;12.50;3.30;;;;;;;;;;5032905;28;20037;-72
2022/06/21 12:10:37;;;;;;;8.20;2.92;;;;;;;;;;5033527;28;20384;-72
2022/06/21 12:13:09;;;;;;;9.60;3.65;;;;;;;;;;5032236;28;20048;-73
2022/06/21 12:15:45;;;;;;;8.93;3.28;;;;;;;;;;5033243;28;20025;-71
2022/06/21 12:18:16;;;;;;;11.55;3.30;;;;;;;;;;5032777;28;20029;-72
2022/06/21 12:20:59;;;;;;;16.83;4.40;;;;;;;;;;5032995;28;20030;-71
2022/06/21 12:23:25;;;;;;;6.60;3.53;;;;;;;;;;5032926;28;20042;-72
2022/06/21 12:25:51;;;;;;;7.75;4.13;;;;;;;;;;5032755;28;20045;-72
2022/06/21 12:28:25;;;;;;;9.32;3.45;;;;;;;;;;5030584;28;20037;-72
2022/06/21 12:30:58;;;;;;;9.15;3.78;;;;;;;;;;5030356;28;20048;-72
2022/06/21 12:33:26;;;;;;;10.02;3.42;;;;;;;;;;5031928;28;20399;-71
2022/06/21 12:35:55;;;;;;;10.82;3.50;;;;;;;;;;5031569;28;20033;-71
2022/06/21 12:38:24;;;;;;;8.30;3.65;;;;;;;;;;5032929;28;20391;-72
2022/06/21 12:41:05;;;;;;;11.30;3.47;;;;;;;;;;5033312;28;20041;-72
2022/06/21 12:43:31;;;;;;;15.77;4.00;;;;;;;;;;5032944;28;20163;-71
2022/06/21 12:46:16;;;;;;;8.85;3.45;;;;;;;;;;5032839;28;20108;-71
2022/06/21 12:49:01;;;;;;;9.88;3.45;;;;;;;;;;5031712;28;20034;-71
2022/06/21 12:51:39;;;;;;;14.07;3.33;;;;;;;;;;5032795;28;20064;-72
2022/06/21 12:54:12;;;;;;;9.88;3.35;;;;;;;;;;5032804;28;20042;-71
2022/06/21 12:56:41;;;;;;;14.70;4.25;;;;;;;;;;5032598;28;20064;-71
2022/06/21 12:59:26;;;;;;;13.77;3.90;;;;;;;;;;5032937;28;20092;-71
2022/06/21 13:02:00;;;;;;;11.68;3.63;;;;;;;;;;5032392;28;20505;-72
2022/06/21 13:04:29;;;;;;;10.90;4.00;;;;;;;;;;5032642;28;20431;-72
2022/06/21 13:07:17;;;;;;;22.30;4.00;;;;;;;;;;5032740;28;20037;-71
2022/06/21 13:10:03;;;;;;;12.60;4.30;;;;;;;;;;5032869;28;20044;-72
2022/06/21 13:12:43;;;;;;;11.98;4.38;;;;;;;;;;5032615;28;20030;-71
2022/06/21 13:15:09;;;;;;;14.52;4.20;;;;;;;;;;5032615;28;20033;-71
2022/06/21 13:17:41;;;;;;;13.30;4.07;;;;;;;;;;5032517;28;20052;-70
2022/06/21 13:20:10;;;;;;;18.42;4.00;;;;;;;;;;5032521;28;20037;-70
2022/06/21 13:22:50;;;;;;;10.70;4.10;;;;;;;;;;5033118;28;20056;-70
2022/06/21 13:25:35;;;;;;;11.88;4.13;;;;;;;;;;5036373;28;20132;-69
2022/06/21 13:28:10;;;;;;;8.10;3.88;;;;;;;;;;5036059;28;20026;-72
2022/06/21 13:30:45;;;;;;;12.80;4.20;;;;;;;;;;5036120;28;20034;-72
2022/06/21 13:33:14;;;;;;;13.63;3.88;;;;;;;;;;5036116;28;20037;-71
2022/06/21 13:35:42;;;;;;;12.13;3.72;;;;;;;;;;5036119;28;20049;-72
2022/06/21 13:38:18;;;;;;;12.88;3.83;;;;;;;;;;5035991;28;20124;-73
2022/06/21 13:40:49;;;;;;;14.40;3.65;;;;;;;;;;5036044;28;20057;-72
2022/06/21 13:43:17;;;;;;;15.20;3.80;;;;;;;;;;5036016;28;20033;-72
2022/06/21 13:45:46;;;;;;;14.13;3.88;;;;;;;;;;5036087;28;20049;-72
2022/06/21 13:48:31;;;;;;;16.55;4.43;;;;;;;;;;5035920;28;20034;-72
2022/06/21 13:51:04;;;;;;;15.82;3.38;;;;;;;;;;5035658;28;20046;-72
2022/06/21 13:53:48;;;;;;;18.60;3.85;;;;;;;;;;5035750;28;20035;-72
2022/06/21 13:56:21;;;;;;;11.63;3.70;;;;;;;;;;5035580;28;20480;-72
2022/06/21 13:58:49;;;;;;;14.32;3.97;;;;;;;;;;5035687;28;20030;-72
2022/06/21 14:01:41;;;;;;;9.90;3.30;;;;;;;;;;5035258;28;20039;-73
2022/06/21 14:04:07;;;;;;;14.63;3.50;;;;;;;;;;5033925;28;20049;-73
2022/06/21 14:06:54;;;;;;;16.02;3.35;;;;;;;;;;5035466;28;20064;-73
2022/06/21 14:09:20;;;;;;;12.10;3.72;;;;;;;;;;5035467;28;20033;-72
2022/06/21 14:11:56;;;;;;;10.43;3.17;;;;;;;;;;5033940;28;20025;-72
2022/06/21 14:14:40;;;;;;;8.90;2.80;;;;;;;;;;5034923;28;20032;-72
2022/06/21 14:17:12;;;;;;;9.85;3.65;;;;;;;;;;5034828;28;20135;-71
2022/06/21 14:19:46;;;;;;;13.75;3.35;;;;;;;;;;5053888;28;20047;-71
2022/06/21 14:22:17;;;;;;;11.85;3.22;;;;;;;;;;5054700;28;20036;-72
2022/06/21 14:24:45;;;;;;;12.63;3.17;;;;;;;;;;5054727;28;20071;-70
2022/06/21 14:27:11;;;;;;;10.80;3.22;;;;;;;;;;5041041;28;20139;-70
2022/06/21 14:29:53;;;;;;;12.48;3.72;;;;;;;;;;5055182;28;20081;-71
2022/06/21 14:32:19;;;;;;;10.63;3.38;;;;;;;;;;5054718;28;20394;-71
2022/06/21 14:34:45;;;;;;;11.23;3.65;;;;;;;;;;5053554;28;20029;-71
2022/06/21 14:37:20;;;;;;;15.18;3.60;;;;;;;;;;5054669;28;20479;-73
2022/06/21 14:39:57;;;;;;;8.27;3.40;;;;;;;;;;5054841;28;20067;-73
2022/06/21 14:42:23;;;;;;;17.98;3.95;;;;;;;;;;5054639;28;20063;-72
2022/06/21 14:45:01;;;;;;;7.75;3.78;;;;;;;;;;5054606;28;20041;-72
2022/06/21 14:47:34;;;;;;;14.35;4.20;;;;;;;;;;5054901;28;20065;-71
2022/06/21 14:50:00;;;;;;;14.73;4.80;;;;;;;;;;5054578;28;20036;-71
2022/06/21 14:52:35;;;;;;;9.40;4.18;;;;;;;;;;5054429;28;20029;-73
2022/06/21 14:55:04;;;;;;;16.02;4.50;;;;;;;;;;5054416;28;20039;-72
2022/06/21 14:57:40;;;;;;;12.82;4.45;;;;;;;;;;5054647;28;20029;-72
2022/06/21 15:00:21;;;;;;;13.55;3.92;;;;;;;;;;5054344;28;20497;-72
2022/06/21 15:03:07;;;;;;;11.63;4.00;;;;;;;;;;5054944;28;20459;-71
2022/06/21 15:05:51;;;;;;;10.27;3.83;;;;;;;;;;5054041;28;20055;-71
2022/06/21 15:08:29;;;;;;;12.85;3.55;;;;;;;;;;5054624;28;20064;-71
2022/06/21 15:11:09;;;;;;;14.88;4.47;;;;;;;;;;5054471;28;20122;-72
2022/06/21 15:13:45;;;;;;;14.02;4.45;;;;;;;;;;5054206;28;20090;-72
2022/06/21 15:16:22;;;;;;;14.50;3.80;;;;;;;;;;5054031;28;20025;-72
2022/06/21 15:18:51;;;;;;;17.83;4.38;;;;;;;;;;5053901;28;20033;-71
2022/06/21 15:21:19;;;;;;;11.82;3.55;;;;;;;;;;5054032;28;20064;-72
2022/06/21 15:23:46;;;;;;;14.82;3.95;;;;;;;;;;5053756;28;20033;-72
2022/06/21 15:26:21;;;;;;;10.18;4.10;;;;;;;;;;5054048;28;20029;-70
2022/06/21 15:28:50;;;;;;;11.63;3.60;;;;;;;;;;5054265;28;20029;-71
2022/06/21 15:31:18;;;;;;;9.75;3.80;;;;;;;;;;5053767;28;20043;-72
2022/06/21 15:33:59;;;;;;;10.57;3.83;;;;;;;;;;5053868;28;20609;-72
2022/06/21 15:36:26;;;;;;;13.02;4.00;;;;;;;;;;5052453;28;20406;-71
2022/06/21 15:38:51;;;;;;;21.13;3.53;;;;;;;;;;5050924;28;20040;-71
2022/06/21 15:41:21;;;;;;;11.15;4.45;;;;;;;;;;5051081;28;20407;-72
2022/06/21 15:43:48;;;;;;;15.02;4.10;;;;;;;;;;5052318;28;20044;-71
2022/06/21 15:46:19;;;;;;;12.65;4.30;;;;;;;;;;5053351;28;20041;-72
2022/06/21 15:51:48;;;;;;;10.90;3.83;;;;;;;;;;5053183;28;20144;-73
2022/06/21 15:54:23;;;;;;;13.57;4.03;;;;;;;;;;5053261;28;20035;-72
2022/06/21 15:56:52;;;;;;;11.23;3.85;;;;;;;;;;5053424;28;20037;-72
2022/06/21 15:59:34;;;;;;;10.40;4.75;;;;;;;;;;5052693;28;20045;-72
2022/06/21 16:02:12;;;;;;;15.38;4.78;;;;;;;;;;5051778;28;20041;-71
2022/06/21 16:04:57;;;;;;;18.17;5.18;;;;;;;;;;5052674;28;20609;-73
2022/06/21 16:07:26;;;;;;;14.13;4.95;;;;;;;;;;5052833;28;20072;-72
2022/06/21 16:09:54;;;;;;;13.63;5.28;;;;;;;;;;5053240;28;20033;-72
2022/06/21 16:12:29;;;;;;;18.80;5.65;;;;;;;;;;5052884;28;20033;-71
2022/06/21 16:15:01;;;;;;;14.98;5.25;;;;;;;;;;5052648;28;20029;-72
2022/06/21 16:17:30;;;;;;;21.80;5.30;;;;;;;;;;5053059;28;20399;-72
2022/06/21 16:20:04;;;;;;;20.10;5.60;;;;;;;;;;5053071;28;20055;-72
2022/06/21 16:22:56;;;;;;;17.33;4.97;;;;;;;;;;5052702;28;20037;-72
2022/06/21 16:25:29;;;;;;;15.90;4.60;;;;;;;;;;5052206;28;20055;-71
2022/06/21 16:28:15;;;;;;;19.77;5.97;;;;;;;;;;5052900;28;20111;-71
2022/06/21 16:33:12;;;;;;;18.85;5.43;;;;;;;;;;5052235;28;20400;-71
2022/06/21 16:33:39;;;;;;;19.67;6.45;;;;;;;;;;5052851;28;20118;-71
2022/06/21 16:36:13;;;;;;;11.10;5.97;;;;;;;;;;5052881;28;20028;-71
2022/06/21 16:38:39;;;;;;;10.75;5.45;;;;;;;;;;5052735;28;20059;-70
2022/06/21 16:44:08;;;;;;;12.70;5.60;;;;;;;;;;5052306;28;20059;-70
2022/06/21 16:46:44;;;;;;;13.48;6.13;;;;;;;;;;5052463;28;20139;-72
2022/06/21 16:49:14;;;;;;;18.92;5.35;;;;;;;;;;5052661;28;20090;-73
2022/06/21 16:51:42;;;;;;;16.02;5.43;;;;;;;;;;5052186;28;20025;-70
2022/06/21 16:54:22;;;;;;;13.05;5.18;;;;;;;;;;5052531;28;20037;-71
2022/06/21 16:56:48;;;;;;;21.15;5.32;;;;;;;;;;5052575;28;20033;-71
2022/06/21 16:59:17;;;;;;;17.98;5.22;;;;;;;;;;5055103;28;20476;-71
2022/06/21 17:01:45;;;;;;;12.35;4.18;;;;;;;;;;5056587;28;20028;-71
2022/06/21 17:04:25;;;;;;;14.80;4.25;;;;;;;;;;5056124;28;20049;-71
2022/06/21 17:06:53;;;;;;;13.13;3.90;;;;;;;;;;5056395;28;20379;-73
2022/06/21 17:09:23;;;;;;;13.95;3.80;;;;;;;;;;5056286;28;20060;-73
2022/06/21 17:11:51;;;;;;;9.13;4.05;;;;;;;;;;5056084;28;20372;-72
2022/06/21 17:14:19;;;;;;;17.77;4.10;;;;;;;;;;5056250;28;20119;-73
2022/06/21 17:17:04;;;;;;;13.60;4.75;;;;;;;;;;5056239;28;20025;-73
2022/06/21 17:19:45;;;;;;;13.32;4.45;;;;;;;;;;5056365;28;20029;-72
2022/06/21 17:22:25;;;;;;;18.48;5.28;;;;;;;;;;5055905;28;20025;-72
2022/06/21 17:25:00;;;;;;;11.88;5.40;;;;;;;;;;5055728;28;20045;-72
2022/06/21 17:27:29;;;;;;;13.63;5.90;;;;;;;;;;5055890;28;20040;-72
2022/06/21 17:30:00;;;;;;;16.63;7.05;;;;;;;;;;5055846;28;20040;-72
2022/06/21 17:32:29;;;;;;;17.08;6.50;;;;;;;;;;5055955;28;20029;-71
2022/06/21 17:35:01;;;;;;;24.00;7.07;;;;;;;;;;5055029;28;20040;-71
2022/06/21 17:37:50;;;;;;;18.15;6.90;;;;;;;;;;5055075;28;20503;-70
2022/06/21 17:40:16;;;;;;;25.58;7.65;;;;;;;;;;5055377;28;20037;-71